KFEP/FEP METAR and TAF weather

Enter ICAO airport designator
Station Type Date Time Source
KFEP METAR 2018/12/10 01:55 UTC NOAA

KFEP 100155Z AUTO 00000KT 4SM BR CLR M09/M10 A3034 RMK AO2 T10911099


Station Type Date Time Source
KFEP Decoded METAR 2018/12/10 01:55 UTC NOAA

Freeport, Albertus Airport, IL, United States (KFEP) 42-14-47N 089-34-56W
Dec 09, 2018 - 08:55 PM EST / 2018.12.10 0155 UTC
Wind: Calm:0
Visibility: 4 mile(s):0
Sky conditions: clear
Weather: mist
Temperature: 15.6 F (-9.1 C)
Dew Point: 14.2 F (-9.9 C)
Relative Humidity: 93%
Pressure (altimeter): 30.34 in. Hg (1027 hPa)
ob: KFEP 100155Z AUTO 00000KT 4SM BR CLR M09/M10 A3034 RMK AO2 T10911099
cycle: 2

Station Type Date Time Source
KFEP TAF UTC NOAA

Error!


Example: see airport list